Time;durP1;ratioP1;P1;durP2;ratioP2;P2;SDS_P1;SDS_P2;PMS_P1;PMS_P2;Temp;Humidity;BMP_temperature;BMP_pressure;BME280_temperature;BME280_humidity;BME280_pressure;Samples;Min_cycle;Max_cycle;Signal;HPM_P1;HPM_P2
2023/01/18 00:01:10;;;;;;;7.47;3.53;;;0.40;99.90;;;;;;5069143;28;20037;-58
2023/01/18 00:03:37;;;;;;;6.03;3.13;;;0.40;99.90;;;;;;5052734;28;20059;-58
2023/01/18 00:06:05;;;;;;;6.63;3.85;;;0.30;99.90;;;;;;5069071;28;20059;-58
2023/01/18 00:08:32;;;;;;;4.93;3.17;;;0.30;99.90;;;;;;5069133;28;20048;-58
2023/01/18 00:11:24;;;;;;;6.05;3.38;;;0.20;99.90;;;;;;5069606;28;20158;-58
2023/01/18 00:13:51;;;;;;;5.00;3.38;;;0.30;99.90;;;;;;5068508;28;20654;-58
2023/01/18 00:16:19;;;;;;;6.72;3.17;;;0.30;99.90;;;;;;5072905;28;20048;-58
2023/01/18 00:18:53;;;;;;;5.28;3.85;;;0.20;99.90;;;;;;5092372;28;20056;-58
2023/01/18 00:21:19;;;;;;;6.32;3.50;;;0.30;99.90;;;;;;5095559;28;20425;-58
2023/01/18 00:23:45;;;;;;;5.93;3.20;;;0.30;99.90;;;;;;5095120;28;20493;-58
2023/01/18 00:26:11;;;;;;;5.00;3.63;;;0.20;99.90;;;;;;5095083;28;20047;-58
2023/01/18 00:28:38;;;;;;;5.70;3.65;;;0.20;99.90;;;;;;5095226;28;20044;-58
2023/01/18 00:31:16;;;;;;;9.30;3.78;;;0.10;99.90;;;;;;5095185;28;20044;-58
2023/01/18 00:33:43;;;;;;;5.18;3.60;;;0.20;99.90;;;;;;5094884;28;20501;-58
2023/01/18 00:36:09;;;;;;;6.28;3.90;;;0.30;99.90;;;;;;5094968;28;20436;-58
2023/01/18 00:38:34;;;;;;;5.82;3.13;;;0.20;99.90;;;;;;5094723;28;20043;-58
2023/01/18 00:41:00;;;;;;;9.68;3.95;;;0.20;99.90;;;;;;5095169;28;20040;-58
2023/01/18 00:43:38;;;;;;;9.05;4.15;;;0.20;99.90;;;;;;5094847;28;20474;-58
2023/01/18 00:46:15;;;;;;;6.72;4.07;;;0.20;99.90;;;;;;5094547;28;20477;-58
2023/01/18 00:48:42;;;;;;;4.70;3.58;;;0.10;99.90;;;;;;5094712;28;20417;-58
2023/01/18 00:51:14;;;;;;;6.35;3.80;;;0.10;99.90;;;;;;5094494;28;20044;-58
2023/01/18 00:53:43;;;;;;;5.75;3.58;;;0.10;99.90;;;;;;5093543;28;20156;-58
2023/01/18 00:56:11;;;;;;;9.48;3.70;;;0.10;99.90;;;;;;5093444;28;20063;-58
2023/01/18 00:58:37;;;;;;;5.07;3.47;;;0.00;99.90;;;;;;5094827;28;20044;-58
2023/01/18 01:01:04;;;;;;;6.45;3.90;;;0.10;99.90;;;;;;5094588;28;20036;-58
2023/01/18 01:06:43;;;;;;;7.80;3.30;;;0.10;99.90;;;;;;5094839;28;20040;-58
2023/01/18 01:08:59;;;;;;;6.95;3.40;;;0.10;99.90;;;;;;5093268;28;20055;-58
2023/01/18 01:11:25;;;;;;;4.43;3.42;;;0.10;99.90;;;;;;5094074;28;20394;-58
2023/01/18 01:27:32;;;;;;;7.85;4.10;;;0.10;99.90;;;;;;5094069;28;20050;-58
2023/01/18 01:29:57;;;;;;;6.93;3.20;;;0.10;99.90;;;;;;5093890;28;20040;-58
2023/01/18 01:32:23;;;;;;;5.15;3.30;;;0.00;99.90;;;;;;5093651;28;20390;-58
2023/01/18 01:34:49;;;;;;;10.32;4.13;;;0.10;99.90;;;;;;5093750;28;20134;-58
2023/01/18 01:37:15;;;;;;;14.00;3.47;;;0.00;99.90;;;;;;5093821;28;20537;-58
2023/01/18 01:39:40;;;;;;;5.63;3.33;;;0.00;99.90;;;;;;5093895;28;20040;-58
2023/01/18 01:42:10;;;;;;;5.70;3.78;;;0.00;99.90;;;;;;5093858;28;20036;-58
2023/01/18 01:44:42;;;;;;;7.97;3.42;;;0.00;99.90;;;;;;5093716;28;20125;-58
2023/01/18 01:47:38;;;;;;;6.78;3.65;;;-0.10;99.90;;;;;;5093518;28;20032;-58
2023/01/18 01:50:23;;;;;;;5.90;3.33;;;0.00;99.90;;;;;;5093047;28;20489;-58
2023/01/18 01:52:48;;;;;;;6.47;3.40;;;-0.10;99.90;;;;;;5093285;28;20048;-58
2023/01/18 01:55:21;;;;;;;6.32;3.45;;;0.00;99.90;;;;;;5093361;28;20036;-58
2023/01/18 01:58:06;;;;;;;8.98;3.50;;;0.00;99.90;;;;;;5093356;28;20169;-58
2023/01/18 02:00:32;;;;;;;7.95;3.80;;;-0.10;99.90;;;;;;5093366;28;20067;-58
2023/01/18 02:03:06;;;;;;;5.38;3.47;;;-0.10;99.90;;;;;;5093212;28;20490;-58
2023/01/18 02:05:35;;;;;;;5.05;3.10;;;0.00;99.90;;;;;;5093594;28;20050;-58
2023/01/18 02:08:02;;;;;;;7.82;3.70;;;0.00;99.90;;;;;;5093004;28;20371;-58
2023/01/18 02:10:28;;;;;;;5.57;3.80;;;0.10;99.90;;;;;;5093267;28;20054;-58
2023/01/18 02:12:55;;;;;;;8.15;3.50;;;0.00;99.90;;;;;;5093184;28;20072;-58
2023/01/18 02:15:26;;;;;;;7.70;3.67;;;0.00;99.90;;;;;;5093057;28;20044;-58
2023/01/18 02:18:15;;;;;;;7.75;4.45;;;0.10;99.90;;;;;;5092859;28;20440;-58
2023/01/18 02:21:08;;;;;;;4.75;3.33;;;0.00;99.90;;;;;;5092816;28;20047;-59
2023/01/18 02:23:44;;;;;;;5.47;3.63;;;0.00;99.90;;;;;;5091875;28;20086;-58
2023/01/18 02:26:21;;;;;;;7.50;3.50;;;0.00;99.90;;;;;;5092886;28;20119;-58
2023/01/18 02:29:13;;;;;;;7.15;4.10;;;0.00;99.90;;;;;;5092751;28;20051;-58
2023/01/18 02:31:57;;;;;;;7.28;3.70;;;0.00;99.90;;;;;;5092657;28;20036;-58
2023/01/18 02:34:47;;;;;;;7.93;3.47;;;0.00;99.90;;;;;;5092071;28;20044;-58
2023/01/18 02:37:19;;;;;;;6.60;3.80;;;0.10;99.90;;;;;;5091392;28;20389;-58
2023/01/18 02:40:01;;;;;;;4.85;3.45;;;0.10;99.90;;;;;;5092517;28;20416;-58
2023/01/18 02:48:37;;;;;;;4.45;3.53;;;0.10;99.90;;;;;;5092462;28;20118;-58
2023/01/18 02:51:04;;;;;;;8.30;3.97;;;0.20;99.90;;;;;;5092267;28;20047;-58
2023/01/18 02:53:32;;;;;;;5.57;4.18;;;0.20;99.90;;;;;;5092319;28;20044;-58
2023/01/18 02:56:00;;;;;;;8.57;4.13;;;0.70;99.90;;;;;;5092319;28;20036;-58
2023/01/18 02:58:32;;;;;;;6.53;3.70;;;0.10;99.90;;;;;;5091338;28;20427;-58
2023/01/18 03:01:09;;;;;;;7.53;4.38;;;0.10;99.90;;;;;;5092562;28;20088;-58
2023/01/18 03:03:36;;;;;;;5.15;4.15;;;0.10;99.90;;;;;;5092564;28;20119;-58
2023/01/18 03:06:06;;;;;;;7.95;4.35;;;0.10;99.90;;;;;;5092252;28;20058;-58
2023/01/18 03:08:47;;;;;;;8.77;4.22;;;0.10;99.90;;;;;;5092057;28;20541;-58
2023/01/18 03:11:53;;;;;;;9.98;4.22;;;0.00;99.90;;;;;;5092251;28;20114;-58
2023/01/18 03:14:34;;;;;;;9.20;5.05;;;0.00;99.90;;;;;;5052814;28;20114;-58
2023/01/18 03:17:24;;;;;;;7.22;3.97;;;-0.10;99.90;;;;;;5069513;28;20036;-58
2023/01/18 03:20:05;;;;;;;9.07;4.55;;;-0.10;99.90;;;;;;5069456;28;20448;-58
2023/01/18 03:25:40;;;;;;;9.00;5.40;;;-0.10;99.90;;;;;;5069432;28;20053;-58
2023/01/18 03:33:52;;;;;;;8.65;5.43;;;-0.20;99.90;;;;;;5069450;28;20078;-58
2023/01/18 03:36:27;;;;;;;7.15;5.30;;;-0.20;99.90;;;;;;5069404;28;20036;-58
2023/01/18 03:39:01;;;;;;;8.70;5.25;;;-0.20;99.90;;;;;;5069240;28;20494;-58
2023/01/18 03:41:31;;;;;;;9.15;5.63;;;-0.30;99.90;;;;;;5069486;28;20044;-58
2023/01/18 03:44:02;;;;;;;9.45;5.75;;;-0.20;99.90;;;;;;5069314;28;20087;-58
2023/01/18 03:46:30;;;;;;;8.02;5.45;;;-0.30;99.90;;;;;;5070785;28;20072;-58
2023/01/18 03:48:57;;;;;;;9.70;5.82;;;-0.30;99.90;;;;;;5073265;28;20570;-58
2023/01/18 03:52:01;;;;;;;8.07;5.72;;;-0.40;99.90;;;;;;5082713;28;20490;-58
2023/01/18 03:54:52;;;;;;;10.02;6.20;;;-0.40;99.90;;;;;;5073008;28;20080;-58
2023/01/18 03:57:21;;;;;;;;;;;-0.30;99.90;;;;;;5073646;28;20041;-58
2023/01/18 03:59:47;;;;;;;9.82;5.97;;;-0.30;99.90;;;;;;5073175;28;19916;-58
2023/01/18 04:02:16;;;;;;;6.97;5.78;;;-0.50;99.90;;;;;;5073093;28;20395;-58
2023/01/18 04:04:42;;;;;;;9.05;6.40;;;-0.40;99.90;;;;;;5072904;28;20055;-58
2023/01/18 04:07:07;;;;;;;9.00;6.13;;;-0.40;99.90;;;;;;5072919;28;20036;-58
2023/01/18 04:09:33;;;;;;;11.52;7.63;;;-0.50;99.90;;;;;;5056323;28;20048;-58
2023/01/18 04:11:59;;;;;;;8.95;5.90;;;-0.40;99.90;;;;;;5072782;28;20057;-58
2023/01/18 04:14:24;;;;;;;7.53;6.18;;;-0.50;99.90;;;;;;5072895;28;20043;-58
2023/01/18 04:16:50;;;;;;;11.13;6.30;;;-0.40;99.90;;;;;;5055656;28;20052;-58
2023/01/18 04:19:16;;;;;;;10.57;6.00;;;-0.50;99.90;;;;;;5072557;28;20091;-58
2023/01/18 04:21:42;;;;;;;7.95;5.90;;;-0.50;99.90;;;;;;5056098;28;20490;-58
2023/01/18 04:24:10;;;;;;;8.70;6.43;;;-0.50;99.90;;;;;;5072630;28;20064;-58
2023/01/18 04:26:36;;;;;;;11.02;6.90;;;-0.60;99.90;;;;;;5072734;28;20386;-58
2023/01/18 04:29:02;;;;;;;8.55;6.40;;;-0.50;99.90;;;;;;5072539;28;20052;-58
2023/01/18 04:31:28;;;;;;;10.77;6.35;;;-0.60;99.90;;;;;;5089497;28;20048;-58
2023/01/18 04:33:53;;;;;;;8.48;6.07;;;-0.60;99.90;;;;;;5094844;28;20503;-58
2023/01/18 04:36:20;;;;;;;9.35;6.45;;;-0.60;99.90;;;;;;5095460;28;20036;-58
2023/01/18 04:38:46;;;;;;;8.65;6.40;;;-0.60;99.90;;;;;;5095342;28;20557;-58
2023/01/18 04:41:12;;;;;;;11.07;6.47;;;-0.60;99.90;;;;;;5095192;28;20097;-58
2023/01/18 04:43:37;;;;;;;8.95;6.35;;;-0.60;99.90;;;;;;5093695;28;20048;-58
2023/01/18 04:46:03;;;;;;;12.27;6.90;;;-0.50;99.90;;;;;;5094723;28;20470;-58
2023/01/18 04:48:29;;;;;;;8.43;6.55;;;-0.60;99.90;;;;;;5094604;28;20036;-58
2023/01/18 04:50:54;;;;;;;11.25;6.60;;;-0.60;99.90;;;;;;5094554;28;20446;-58
2023/01/18 04:53:20;;;;;;;9.18;6.20;;;-0.60;99.90;;;;;;5094406;28;20048;-58
2023/01/18 04:55:46;;;;;;;9.63;5.90;;;-0.50;99.90;;;;;;5094560;28;20032;-58
2023/01/18 04:58:12;;;;;;;9.30;6.43;;;-0.60;99.90;;;;;;5093524;28;20400;-58
2023/01/18 05:00:40;;;;;;;12.55;6.97;;;-0.70;99.90;;;;;;5094468;28;20452;-58
2023/01/18 05:03:08;;;;;;;9.93;6.90;;;-0.70;99.90;;;;;;5094263;28;20075;-58
2023/01/18 05:05:33;;;;;;;10.27;6.78;;;-0.50;99.90;;;;;;5094511;28;20046;-58
2023/01/18 05:07:59;;;;;;;9.70;6.40;;;-0.70;99.90;;;;;;5094468;28;20118;-58
2023/01/18 05:10:24;;;;;;;8.45;6.28;;;-0.50;99.90;;;;;;5094409;28;20032;-58
2023/01/18 05:12:50;;;;;;;10.68;7.10;;;-0.60;99.90;;;;;;5094171;28;20119;-58
2023/01/18 05:15:17;;;;;;;12.18;6.45;;;-0.60;99.90;;;;;;5094166;28;20466;-58
2023/01/18 05:17:43;;;;;;;10.65;6.95;;;-0.60;99.90;;;;;;5093810;28;20094;-58
2023/01/18 05:20:10;;;;;;;13.20;7.00;;;-0.50;99.90;;;;;;5094268;28;20441;-58
2023/01/18 05:22:36;;;;;;;13.15;7.57;;;-0.60;99.90;;;;;;5094150;28;20115;-58
2023/01/18 05:25:05;;;;;;;10.85;7.18;;;-0.50;99.90;;;;;;5093996;28;20044;-58
2023/01/18 05:27:31;;;;;;;12.35;7.88;;;-0.60;99.90;;;;;;5093796;28;20040;-58
2023/01/18 05:29:58;;;;;;;11.02;7.95;;;-0.60;99.90;;;;;;5092789;28;20440;-58
2023/01/18 05:32:24;;;;;;;12.30;7.78;;;-0.60;99.90;;;;;;5092462;28;20121;-58
2023/01/18 05:34:50;;;;;;;12.63;8.05;;;-0.70;99.90;;;;;;5093807;28;20490;-58
2023/01/18 05:37:15;;;;;;;12.68;8.40;;;-0.50;99.90;;;;;;5092576;28;20039;-58
2023/01/18 05:39:41;;;;;;;12.23;7.93;;;-0.70;99.90;;;;;;5093859;28;20591;-58
2023/01/18 05:42:07;;;;;;;15.05;8.70;;;-0.50;99.90;;;;;;5091942;28;20055;-58
2023/01/18 05:44:33;;;;;;;11.68;8.32;;;-0.50;99.90;;;;;;5093771;28;20123;-58
2023/01/18 05:46:59;;;;;;;13.57;8.55;;;-0.60;99.90;;;;;;5093508;28;20093;-58
2023/01/18 05:49:25;;;;;;;14.93;8.23;;;-0.60;99.90;;;;;;5093688;28;20055;-58
2023/01/18 05:51:50;;;;;;;14.57;8.63;;;-0.60;99.90;;;;;;5093765;28;20051;-58
2023/01/18 05:54:16;;;;;;;11.25;8.02;;;-0.70;99.90;;;;;;5093300;28;20424;-58
2023/01/18 05:56:42;;;;;;;13.93;8.10;;;-0.60;99.90;;;;;;5093427;28;20033;-58
2023/01/18 05:59:08;;;;;;;13.27;8.15;;;-0.60;99.90;;;;;;5093327;28;20473;-58
2023/01/18 06:01:33;;;;;;;9.40;7.57;;;-0.50;99.90;;;;;;5093244;28;20035;-58
2023/01/18 06:03:59;;;;;;;13.88;8.35;;;-0.60;99.90;;;;;;5093364;28;20044;-58
2023/01/18 06:06:25;;;;;;;11.50;8.10;;;-0.60;99.90;;;;;;5093262;28;20123;-59
2023/01/18 06:08:51;;;;;;;12.63;7.88;;;-0.50;99.90;;;;;;5092732;28;20126;-58
2023/01/18 06:11:16;;;;;;;15.32;8.73;;;-0.70;99.90;;;;;;5093164;28;20032;-58
2023/01/18 06:13:43;;;;;;;12.45;8.20;;;-0.70;99.90;;;;;;5092904;28;20045;-58
2023/01/18 06:16:10;;;;;;;12.48;8.45;;;-0.60;99.90;;;;;;5092853;28;20093;-58
2023/01/18 06:18:38;;;;;;;19.75;9.00;;;-0.50;99.90;;;;;;5092865;28;20052;-58
2023/01/18 06:21:04;;;;;;;12.23;8.45;;;-0.60;99.90;;;;;;5092965;28;20032;-58
2023/01/18 06:23:30;;;;;;;13.63;8.35;;;-0.50;99.90;;;;;;5093009;28;20036;-58
2023/01/18 06:25:56;;;;;;;11.93;7.97;;;-0.60;99.90;;;;;;5092917;28;20040;-58
2023/01/18 06:28:22;;;;;;;13.65;8.25;;;-0.60;99.90;;;;;;5092777;28;20569;-58
2023/01/18 06:30:51;;;;;;;12.02;7.82;;;-0.50;99.90;;;;;;5092572;28;20394;-58
2023/01/18 06:33:17;;;;;;;12.85;8.10;;;-0.50;99.90;;;;;;5091483;28;20119;-58
2023/01/18 06:35:42;;;;;;;15.18;8.52;;;-0.60;99.90;;;;;;5092899;28;20127;-58
2023/01/18 06:38:08;;;;;;;19.15;8.18;;;-0.70;99.90;;;;;;5091954;28;20372;-58
2023/01/18 06:40:34;;;;;;;12.63;8.05;;;-0.50;99.90;;;;;;5092507;28;20436;-58
2023/01/18 06:42:59;;;;;;;11.23;8.52;;;-0.60;99.90;;;;;;5092566;28;20450;-58
2023/01/18 06:45:25;;;;;;;12.98;9.07;;;-0.70;99.90;;;;;;5092509;28;20071;-58
2023/01/18 06:47:51;;;;;;;13.35;8.55;;;-0.60;99.90;;;;;;5092718;28;20377;-58
2023/01/18 06:50:18;;;;;;;16.58;8.73;;;-0.70;99.90;;;;;;5091220;28;20474;-58
2023/01/18 06:52:44;;;;;;;15.00;8.27;;;-0.60;99.90;;;;;;5092373;28;20039;-58
2023/01/18 06:55:11;;;;;;;18.85;9.18;;;-0.60;99.90;;;;;;5092344;28;20059;-58
2023/01/18 06:57:37;;;;;;;11.82;8.18;;;-0.70;99.90;;;;;;5092125;28;20051;-58
2023/01/18 07:00:07;;;;;;;14.30;8.55;;;-0.60;99.90;;;;;;5090946;28;20394;-58
2023/01/18 07:02:34;;;;;;;16.58;8.88;;;-0.50;99.90;;;;;;5091978;28;20116;-58
2023/01/18 07:05:00;;;;;;;16.70;8.45;;;-0.70;99.90;;;;;;5092185;28;20054;-58
2023/01/18 07:07:27;;;;;;;15.95;8.52;;;-0.70;99.90;;;;;;5092213;28;20382;-58
2023/01/18 07:09:53;;;;;;;9.77;7.75;;;-0.70;99.90;;;;;;5092107;28;20155;-58
2023/01/18 07:12:19;;;;;;;12.82;7.68;;;-0.60;99.90;;;;;;5092038;28;20449;-58
2023/01/18 07:14:45;;;;;;;15.23;8.88;;;-0.60;99.90;;;;;;5092125;28;20051;-58
2023/01/18 07:17:12;;;;;;;15.02;8.85;;;-0.60;99.90;;;;;;5092017;28;20035;-58
2023/01/18 07:19:37;;;;;;;14.57;9.02;;;-0.60;99.90;;;;;;5091894;28;20136;-58
2023/01/18 07:22:03;;;;;;;14.68;9.50;;;-0.60;99.90;;;;;;5091391;28;20063;-58
2023/01/18 07:24:29;;;;;;;13.43;8.82;;;-0.70;99.90;;;;;;5091894;28;20432;-58
2023/01/18 07:26:58;;;;;;;18.33;8.35;;;-0.70;99.90;;;;;;5091805;28;20128;-57
2023/01/18 07:29:24;;;;;;;14.13;8.20;;;-0.60;99.90;;;;;;5092159;28;20051;-58
2023/01/18 07:31:50;;;;;;;13.02;8.77;;;-0.60;99.90;;;;;;5091720;28;20051;-58
2023/01/18 07:34:16;;;;;;;13.45;8.40;;;-0.60;99.90;;;;;;5091793;28;20119;-58
2023/01/18 07:36:42;;;;;;;10.85;8.27;;;-0.50;99.90;;;;;;5091852;28;20040;-58
2023/01/18 07:39:08;;;;;;;12.23;8.30;;;-0.60;99.90;;;;;;5091710;28;20039;-58
2023/01/18 07:41:34;;;;;;;13.00;8.27;;;-0.60;99.90;;;;;;5091665;28;20513;-58
2023/01/18 07:44:00;;;;;;;16.70;8.05;;;-0.60;99.90;;;;;;5091788;28;20036;-58
2023/01/18 07:46:26;;;;;;;13.40;7.97;;;-0.50;99.90;;;;;;5091790;28;20483;-58
2023/01/18 07:48:52;;;;;;;12.82;8.02;;;-0.50;99.90;;;;;;5091870;28;20489;-58
2023/01/18 07:51:20;;;;;;;12.23;8.43;;;-0.50;99.90;;;;;;5091679;28;20164;-58
2023/01/18 07:53:46;;;;;;;14.38;8.05;;;-0.50;99.90;;;;;;5091678;28;20123;-58
2023/01/18 07:56:16;;;;;;;12.90;7.03;;;-0.40;99.90;;;;;;5091555;28;20111;-58
2023/01/18 07:58:43;;;;;;;11.02;7.00;;;-0.50;99.90;;;;;;5090388;28;20512;-58
2023/01/18 08:01:14;;;;;;;11.77;7.35;;;-0.50;99.90;;;;;;5090255;28;20036;-58
2023/01/18 08:03:42;;;;;;;11.77;7.35;;;-0.50;99.90;;;;;;5091613;28;20177;-58
2023/01/18 08:06:08;;;;;;;10.60;6.95;;;-0.50;99.90;;;;;;5092013;28;20040;-58
2023/01/18 08:08:35;;;;;;;14.57;7.30;;;-0.40;99.90;;;;;;5090346;28;20430;-58
2023/01/18 08:11:03;;;;;;;13.63;7.05;;;-0.40;99.90;;;;;;5091696;28;20425;-58
2023/01/18 08:13:29;;;;;;;14.02;6.95;;;-0.30;99.90;;;;;;5091539;28;20465;-58
2023/01/18 08:15:58;;;;;;;13.32;6.53;;;-0.30;99.90;;;;;;5091403;28;20498;-58
2023/01/18 08:18:24;;;;;;;13.93;6.63;;;-0.30;99.90;;;;;;5091324;28;20044;-58
2023/01/18 08:20:50;;;;;;;14.75;7.10;;;-0.20;99.90;;;;;;5091342;28;20506;-58
2023/01/18 08:23:16;;;;;;;11.38;6.40;;;-0.20;99.90;;;;;;5091425;28;20111;-59
2023/01/18 08:25:42;;;;;;;9.40;5.85;;;-0.30;99.90;;;;;;5091360;28;20069;-59
2023/01/18 08:28:08;;;;;;;9.65;6.10;;;-0.30;99.90;;;;;;5091497;28;20043;-59
2023/01/18 08:30:38;;;;;;;9.98;5.90;;;-0.20;99.90;;;;;;5091459;28;20040;-59
2023/01/18 08:33:04;;;;;;;;;;;-0.10;99.90;;;;;;5092441;28;20044;-59
2023/01/18 08:35:32;;;;;;;10.43;6.20;;;-0.10;99.90;;;;;;5095147;28;19923;-59
2023/01/18 08:37:59;;;;;;;10.70;6.07;;;0.00;99.90;;;;;;5095184;28;20036;-59
2023/01/18 08:40:26;;;;;;;10.73;6.43;;;0.00;99.90;;;;;;5093660;28;20482;-59
2023/01/18 08:43:02;;;;;;;10.13;5.60;;;0.00;99.90;;;;;;5094905;28;20036;-59
2023/01/18 08:45:28;;;;;;;10.05;5.57;;;0.20;99.90;;;;;;5093684;28;20367;-59
2023/01/18 08:48:19;;;;;;;11.82;5.22;;;0.30;99.90;;;;;;5094703;28;20043;-60
2023/01/18 08:50:45;;;;;;;10.38;6.03;;;0.40;99.90;;;;;;5093901;28;20434;-58
2023/01/18 08:53:12;;;;;;;10.13;6.57;;;0.50;99.90;;;;;;5094753;28;20115;-58
2023/01/18 08:55:39;;;;;;;14.82;6.47;;;0.70;99.90;;;;;;5094742;28;20040;-59
2023/01/18 08:58:05;;;;;;;10.20;5.82;;;0.70;99.90;;;;;;5094467;28;20036;-59
2023/01/18 09:00:31;;;;;;;10.65;6.20;;;0.80;99.90;;;;;;5094467;28;20547;-60
2023/01/18 09:02:57;;;;;;;12.05;6.68;;;0.80;99.90;;;;;;5094339;28;20486;-59
2023/01/18 09:05:24;;;;;;;9.32;6.10;;;0.90;99.90;;;;;;5094687;28;20377;-59
2023/01/18 09:07:52;;;;;;;10.43;6.18;;;1.00;99.90;;;;;;5094462;28;20433;-59
2023/01/18 09:10:20;;;;;;;13.43;6.18;;;1.00;99.90;;;;;;5093368;28;20058;-59
2023/01/18 09:12:46;;;;;;;9.65;6.40;;;1.00;99.90;;;;;;5094171;28;20115;-60
2023/01/18 09:15:12;;;;;;;10.25;7.05;;;1.10;99.90;;;;;;5094057;28;20040;-60
2023/01/18 09:17:37;;;;;;;7.07;5.38;;;1.10;99.90;;;;;;5094325;28;20036;-60
2023/01/18 09:20:08;;;;;;;11.13;5.82;;;1.30;99.90;;;;;;5093902;28;20452;-60
2023/01/18 09:22:37;;;;;;;17.00;6.18;;;1.40;99.90;;;;;;5094207;28;20083;-60
2023/01/18 09:25:03;;;;;;;13.73;5.55;;;1.40;99.90;;;;;;5094218;28;20035;-60
2023/01/18 09:27:29;;;;;;;12.73;6.30;;;1.50;99.90;;;;;;5093884;28;20035;-60
2023/01/18 09:29:54;;;;;;;8.48;6.00;;;1.50;99.90;;;;;;5093823;28;20051;-60
2023/01/18 09:32:20;;;;;;;9.02;5.20;;;1.60;99.90;;;;;;5094045;28;20085;-60
2023/01/18 09:34:49;;;;;;;13.02;5.25;;;1.60;99.90;;;;;;5093710;28;20058;-60
2023/01/18 09:37:16;;;;;;;7.20;5.03;;;1.70;99.90;;;;;;5093736;28;20614;-60
2023/01/18 09:39:42;;;;;;;10.07;4.72;;;1.80;99.90;;;;;;5093842;28;20036;-60
2023/01/18 09:42:26;;;;;;;10.68;5.47;;;1.80;99.90;;;;;;5093605;28;20093;-60
2023/01/18 09:44:55;;;;;;;8.35;5.18;;;1.90;99.90;;;;;;5093048;28;20065;-60
2023/01/18 09:47:25;;;;;;;9.95;5.50;;;1.90;99.90;;;;;;5093692;28;20050;-61
2023/01/18 09:49:58;;;;;;;8.77;5.38;;;1.90;99.90;;;;;;5093968;28;20044;-60
2023/01/18 09:52:31;;;;;;;9.13;5.28;;;1.80;99.90;;;;;;5093482;28;20127;-60
2023/01/18 09:55:18;;;;;;;15.55;5.75;;;1.90;99.90;;;;;;5093420;28;20747;-61
2023/01/18 09:58:21;;;;;;;9.23;5.20;;;2.00;99.90;;;;;;5093454;28;20072;-60
2023/01/18 10:00:48;;;;;;;12.98;5.65;;;2.00;99.90;;;;;;5093323;28;20051;-61
2023/01/18 10:03:22;;;;;;;12.05;5.93;;;2.10;99.90;;;;;;5093541;28;20054;-62
2023/01/18 10:06:09;;;;;;;8.32;5.15;;;2.20;99.90;;;;;;5093568;28;20492;-60
2023/01/18 10:08:49;;;;;;;7.80;4.80;;;2.20;99.90;;;;;;5093173;28;20035;-60
2023/01/18 10:11:21;;;;;;;17.52;5.25;;;2.50;99.90;;;;;;5093196;28;20415;-61
2023/01/18 10:14:12;;;;;;;17.85;5.63;;;2.60;99.90;;;;;;5093015;28;20028;-61
2023/01/18 10:16:38;;;;;;;7.82;5.57;;;2.80;99.90;;;;;;5093010;28;20447;-61
2023/01/18 10:19:13;;;;;;;10.55;4.97;;;2.90;99.90;;;;;;5092763;28;20087;-61
2023/01/18 10:22:01;;;;;;;11.15;5.10;;;2.90;99.90;;;;;;5092960;28;20040;-61
2023/01/18 10:24:37;;;;;;;11.02;5.32;;;3.00;99.90;;;;;;5092829;28;20036;-61
2023/01/18 10:27:28;;;;;;;9.45;5.38;;;3.00;99.90;;;;;;5092909;28;20035;-61
2023/01/18 10:30:13;;;;;;;7.90;4.93;;;3.20;99.90;;;;;;5092861;28;20040;-61
2023/01/18 10:32:46;;;;;;;9.35;5.03;;;3.20;99.90;;;;;;5092835;28;20089;-61
2023/01/18 10:35:23;;;;;;;5.88;4.05;;;3.30;99.90;;;;;;5092735;28;20040;-61
2023/01/18 10:37:51;;;;;;;10.45;4.25;;;3.40;99.90;;;;;;5092653;28;20035;-61
2023/01/18 10:40:16;;;;;;;7.50;4.82;;;3.40;99.90;;;;;;5091333;28;20089;-61
2023/01/18 10:42:52;;;;;;;9.00;5.20;;;3.30;99.90;;;;;;5092404;28;20428;-61
2023/01/18 10:45:24;;;;;;;9.52;4.50;;;3.30;99.90;;;;;;5091285;28;20505;-61
2023/01/18 10:47:52;;;;;;;8.55;4.90;;;3.40;99.90;;;;;;5091138;28;20367;-61
2023/01/18 10:50:31;;;;;;;9.23;5.10;;;3.40;99.90;;;;;;5092492;28;20079;-60
2023/01/18 10:52:57;;;;;;;6.57;4.55;;;3.50;99.90;;;;;;5092313;28;20043;-61
2023/01/18 10:55:22;;;;;;;5.65;4.38;;;3.50;99.90;;;;;;5091969;28;20137;-61
2023/01/18 10:57:53;;;;;;;8.75;4.75;;;3.50;99.90;;;;;;5092457;28;20047;-61
2023/01/18 11:00:32;;;;;;;8.88;4.57;;;3.60;99.90;;;;;;5092419;28;20048;-61
2023/01/18 11:03:01;;;;;;;10.73;5.50;;;3.60;99.90;;;;;;5092209;28;20047;-61
2023/01/18 11:05:29;;;;;;;19.77;5.40;;;3.70;99.90;;;;;;5092505;28;20044;-61
2023/01/18 11:08:30;;;;;;;9.18;5.45;;;3.80;99.90;;;;;;5092095;28;20101;-62
2023/01/18 11:11:07;;;;;;;8.87;4.57;;;3.90;99.90;;;;;;5092197;28;20036;-61
2023/01/18 11:13:42;;;;;;;10.27;5.10;;;4.00;99.90;;;;;;5092281;28;20044;-61
2023/01/18 11:16:12;;;;;;;6.75;4.28;;;4.10;99.90;;;;;;5091851;28;20124;-61
2023/01/18 11:18:54;;;;;;;6.03;4.60;;;4.20;99.90;;;;;;5091902;28;20055;-61
2023/01/18 11:21:20;;;;;;;7.82;4.93;;;4.40;99.90;;;;;;5091548;28;20401;-61
2023/01/18 11:23:45;;;;;;;8.18;4.28;;;4.40;99.90;;;;;;5090898;28;20051;-61
2023/01/18 11:26:16;;;;;;;8.75;4.40;;;4.50;99.90;;;;;;5091917;28;20390;-61
2023/01/18 11:28:58;;;;;;;11.30;5.22;;;4.60;99.90;;;;;;5091711;28;20071;-61
2023/01/18 11:31:27;;;;;;;7.50;4.13;;;4.70;99.90;;;;;;5092483;28;20387;-61
2023/01/18 11:33:54;;;;;;;7.72;4.55;;;5.10;99.90;;;;;;5091888;28;20044;-61
2023/01/18 11:36:41;;;;;;;6.13;4.32;;;4.80;99.90;;;;;;5092001;28;20035;-61
2023/01/18 11:39:29;;;;;;;7.95;4.53;;;4.70;99.90;;;;;;5092028;28;20147;-61
2023/01/18 11:42:27;;;;;;;8.23;3.95;;;4.60;99.90;;;;;;5091429;28;20048;-62
2023/01/18 11:45:11;;;;;;;9.13;4.43;;;4.60;99.90;;;;;;5090618;28;20054;-62
2023/01/18 11:47:52;;;;;;;4.82;3.83;;;4.70;99.90;;;;;;5091539;28;20051;-61
2023/01/18 11:50:34;;;;;;;8.85;4.00;;;4.80;99.90;;;;;;5091779;28;20092;-61
2023/01/18 11:53:22;;;;;;;6.18;3.92;;;5.00;99.90;;;;;;5091452;28;20506;-62
2023/01/18 11:56:05;;;;;;;5.45;3.75;;;5.10;99.90;;;;;;5091848;28;20449;-62
2023/01/18 11:58:33;;;;;;;6.50;4.10;;;5.10;99.90;;;;;;5091760;28;20040;-62
2023/01/18 12:01:01;;;;;;;7.33;4.13;;;5.30;99.90;;;;;;5090174;28;20028;-61
2023/01/18 12:03:46;;;;;;;5.18;3.50;;;5.40;99.90;;;;;;5091573;28;20101;-61
2023/01/18 12:06:27;;;;;;;8.10;3.92;;;5.40;99.90;;;;;;5091446;28;20050;-61
2023/01/18 12:09:22;;;;;;;8.65;3.95;;;5.50;99.90;;;;;;5095229;28;20044;-61
2023/01/18 12:12:03;;;;;;;8.68;4.50;;;5.60;99.90;;;;;;5095130;28;20077;-61
2023/01/18 12:14:47;;;;;;;8.38;4.18;;;5.70;99.90;;;;;;5095504;28;20040;-62
2023/01/18 12:17:12;;;;;;;9.48;4.13;;;5.70;99.90;;;;;;5094107;28;20123;-61
2023/01/18 12:19:52;;;;;;;6.97;4.43;;;5.70;99.90;;;;;;5094866;28;20182;-61
2023/01/18 12:22:36;;;;;;;;;;;5.70;99.90;;;;;;5095598;28;20048;-61
2023/01/18 12:25:21;;;;;;;10.05;3.92;;;5.70;99.90;;;;;;5095067;28;20383;-62
2023/01/18 12:27:53;;;;;;;7.13;3.53;;;5.80;99.90;;;;;;5095306;28;20109;-61
2023/01/18 12:30:24;;;;;;;7.70;3.90;;;5.80;99.90;;;;;;5095079;28;20044;-61
2023/01/18 12:33:09;;;;;;;7.95;3.35;;;5.80;99.90;;;;;;5094811;28;20048;-62
2023/01/18 12:36:07;;;;;;;7.45;3.53;;;5.80;99.90;;;;;;5095040;28;20432;-61
2023/01/18 12:38:33;;;;;;;7.97;3.70;;;5.70;99.90;;;;;;5052007;28;20052;-61
2023/01/18 12:41:36;;;;;;;7.68;3.53;;;5.70;99.90;;;;;;5052360;28;20056;-61
2023/01/18 12:44:31;;;;;;;8.50;3.60;;;5.60;99.90;;;;;;5052230;28;20059;-61
2023/01/18 12:47:33;;;;;;;7.32;3.25;;;5.50;99.90;;;;;;5052277;28;20513;-61
2023/01/18 12:50:14;;;;;;;7.95;3.95;;;5.30;99.90;;;;;;5052139;28;20055;-61
2023/01/18 12:52:50;;;;;;;8.23;4.10;;;5.20;99.90;;;;;;5051986;28;20136;-61
2023/01/18 12:55:20;;;;;;;5.63;3.65;;;5.20;99.90;;;;;;5052083;28;20044;-61
2023/01/18 12:57:49;;;;;;;6.18;3.80;;;5.10;99.90;;;;;;5052168;28;20414;-61
2023/01/18 13:00:20;;;;;;;6.68;3.28;;;5.10;99.90;;;;;;5051955;28;20604;-61
2023/01/18 13:02:51;;;;;;;8.20;3.85;;;5.00;99.90;;;;;;5052326;28;20067;-61
2023/01/18 13:05:35;;;;;;;6.93;3.40;;;5.00;99.90;;;;;;5051804;28;20124;-61
2023/01/18 13:08:15;;;;;;;6.15;3.42;;;4.90;99.90;;;;;;5052159;28;20053;-61
2023/01/18 13:10:42;;;;;;;9.40;3.92;;;4.80;99.90;;;;;;5051928;28;20123;-61
2023/01/18 13:13:16;;;;;;;5.53;3.50;;;4.80;99.90;;;;;;5051779;28;20550;-61
2023/01/18 13:15:48;;;;;;;5.25;3.25;;;4.70;99.90;;;;;;5073852;28;20391;-61
2023/01/18 13:18:17;;;;;;;5.82;3.17;;;4.60;99.90;;;;;;5093736;28;20124;-61
2023/01/18 13:20:46;;;;;;;5.68;4.10;;;4.60;99.90;;;;;;5093492;28;20059;-61
2023/01/18 13:23:33;;;;;;;8.23;3.47;;;4.50;99.90;;;;;;5094129;28;20050;-61
2023/01/18 13:26:30;;;;;;;7.22;3.47;;;4.50;99.90;;;;;;5094325;28;20402;-61
2023/01/18 13:29:08;;;;;;;6.18;3.30;;;4.50;99.90;;;;;;5093963;28;20053;-61
2023/01/18 13:31:35;;;;;;;7.28;3.58;;;4.50;99.90;;;;;;5093812;28;20044;-62
2023/01/18 13:34:02;;;;;;;5.75;3.40;;;4.50;99.90;;;;;;5093960;28;20062;-60
2023/01/18 13:36:41;;;;;;;5.43;3.63;;;4.60;99.90;;;;;;5093926;28;20036;-61
2023/01/18 13:39:14;;;;;;;9.67;3.77;;;4.60;99.90;;;;;;5093850;28;20043;-62
2023/01/18 13:42:02;;;;;;;9.75;3.17;;;4.50;99.90;;;;;;5093721;28;20051;-61
2023/01/18 13:44:46;;;;;;;6.47;3.38;;;4.50;99.90;;;;;;5093603;28;20047;-60